createdAt,value
2022-08-01T00:01:59.468Z,27.93
2022-08-01T00:04:26.075Z,27.93
2022-08-01T00:06:52.659Z,27.91
2022-08-01T00:09:24.179Z,27.92
2022-08-01T00:11:59.708Z,27.92
2022-08-01T00:14:32.604Z,27.91
2022-08-01T00:17:02.610Z,27.90
2022-08-01T00:19:33.538Z,27.90
2022-08-01T00:22:00.139Z,27.90
2022-08-01T00:24:26.716Z,27.87
2022-08-01T00:26:53.279Z,27.86
2022-08-01T00:30:10.878Z,27.85
2022-08-01T00:32:06.953Z,27.85
2022-08-01T00:34:33.947Z,27.87
2022-08-01T00:37:00.507Z,27.85
2022-08-01T00:39:27.107Z,27.86
2022-08-01T00:41:59.849Z,27.85
2022-08-01T00:44:27.296Z,27.85
2022-08-01T00:46:53.909Z,27.86
2022-08-01T00:49:20.624Z,27.83
2022-08-01T00:51:47.287Z,27.83
2022-08-01T00:54:16.727Z,27.83
2022-08-01T00:56:43.589Z,27.80
2022-08-01T00:59:10.233Z,27.80
2022-08-01T01:01:39.454Z,27.81
2022-08-01T01:04:08.447Z,27.81
2022-08-01T01:06:39.355Z,27.79
2022-08-01T01:09:35.614Z,27.79
2022-08-01T01:12:20.739Z,27.80
2022-08-01T01:15:02.728Z,27.85
2022-08-01T01:17:50.287Z,27.84
2022-08-01T01:20:18.455Z,27.78
2022-08-01T01:22:54.069Z,27.77
2022-08-01T01:25:47.803Z,27.74
2022-08-01T01:28:36.161Z,27.74
2022-08-01T01:31:02.725Z,27.75
2022-08-01T01:33:29.470Z,27.73
2022-08-01T01:36:00.381Z,27.74
2022-08-01T01:38:29.302Z,27.72
2022-08-01T01:40:56.262Z,27.72
2022-08-01T01:43:28.793Z,27.73
2022-08-01T01:45:59.895Z,27.74
2022-08-01T01:48:26.483Z,27.72
2022-08-01T01:50:53.100Z,27.72
2022-08-01T01:53:20.896Z,27.71
2022-08-01T01:55:50.012Z,27.69
2022-08-01T01:58:17.060Z,27.67
2022-08-01T02:00:43.773Z,27.67
2022-08-01T02:03:12.790Z,27.69
2022-08-01T02:05:39.879Z,27.68
2022-08-01T02:08:06.909Z,27.69
2022-08-01T02:10:33.744Z,27.68
2022-08-01T02:13:00.780Z,27.69
2022-08-01T02:15:29.065Z,27.69
2022-08-01T02:17:55.658Z,27.68
2022-08-01T02:20:22.237Z,27.68
2022-08-01T02:22:52.281Z,27.67
2022-08-01T02:25:24.037Z,27.68
2022-08-01T02:27:55.923Z,27.67
2022-08-01T02:30:22.499Z,27.68
2022-08-01T02:32:53.861Z,27.67
2022-08-01T02:35:28.267Z,27.66
2022-08-01T02:37:55.153Z,27.68
2022-08-01T02:40:21.739Z,27.66
2022-08-01T02:42:52.059Z,27.68
2022-08-01T02:45:19.458Z,27.66
2022-08-01T02:47:46.085Z,27.66
2022-08-01T02:50:13.543Z,27.65
2022-08-01T02:52:40.575Z,27.64
2022-08-01T02:55:07.489Z,27.64
2022-08-01T02:57:52.117Z,27.66
2022-08-01T03:00:19.422Z,27.63
2022-08-01T03:02:46.019Z,27.63
2022-08-01T03:05:13.246Z,27.62
2022-08-01T03:07:40.674Z,27.62
2022-08-01T03:10:08.361Z,27.60
2022-08-01T03:12:35.362Z,27.58
2022-08-01T03:15:02.035Z,27.57
2022-08-01T03:17:29.327Z,27.57
2022-08-01T03:19:57.593Z,27.57
2022-08-01T03:22:24.793Z,27.57
2022-08-01T03:24:53.099Z,27.59
2022-08-01T03:27:23.711Z,27.60
2022-08-01T03:29:50.280Z,27.61
2022-08-01T03:32:17.546Z,27.62
2022-08-01T03:34:44.116Z,27.62
2022-08-01T03:37:26.925Z,27.62
2022-08-01T03:39:59.483Z,27.57
2022-08-01T03:42:33.461Z,27.55
2022-08-01T03:45:03.763Z,27.53
2022-08-01T03:47:43.673Z,27.54
2022-08-01T03:50:12.597Z,27.56
2022-08-01T03:52:39.404Z,27.55
2022-08-01T03:55:10.440Z,27.53
2022-08-01T03:57:37.208Z,27.56
2022-08-01T04:00:08.395Z,27.56
2022-08-01T04:02:35.018Z,27.52
2022-08-01T04:05:02.084Z,27.52
2022-08-01T04:07:30.659Z,27.55
2022-08-01T04:09:57.710Z,27.53
2022-08-01T04:12:24.453Z,27.53
2022-08-01T04:14:51.039Z,27.54
2022-08-01T04:17:17.996Z,27.52
2022-08-01T04:19:45.015Z,27.53
2022-08-01T04:22:12.527Z,27.53
2022-08-01T04:24:39.112Z,27.52
2022-08-01T04:27:07.566Z,27.53
2022-08-01T04:29:35.264Z,27.52
2022-08-01T04:32:01.945Z,27.52
2022-08-01T04:34:30.156Z,27.54
2022-08-01T04:36:56.934Z,27.54
2022-08-01T04:39:25.258Z,27.56
2022-08-01T04:41:51.857Z,27.53
2022-08-01T04:44:18.436Z,27.53
2022-08-01T04:46:45.004Z,27.53
2022-08-01T04:49:12.822Z,27.52
2022-08-01T04:51:58.368Z,27.53
2022-08-01T04:54:28.332Z,27.53
2022-08-01T04:56:59.656Z,27.54
2022-08-01T04:59:41.524Z,27.55
2022-08-01T05:02:16.316Z,27.54
2022-08-01T05:04:43.319Z,27.52
2022-08-01T05:07:10.119Z,27.53
2022-08-01T05:09:39.436Z,27.54
2022-08-01T05:12:06.983Z,27.52
2022-08-01T05:14:34.055Z,27.51
2022-08-01T05:17:03.985Z,27.52
2022-08-01T05:19:34.326Z,27.52
2022-08-01T05:22:08.077Z,27.52
2022-08-01T05:24:36.173Z,27.54
2022-08-01T05:27:04.343Z,27.56
2022-08-01T05:29:30.937Z,27.55
2022-08-01T05:31:58.588Z,27.56
2022-08-01T05:34:25.251Z,27.57
2022-08-01T05:36:57.673Z,27.57
2022-08-01T05:39:24.650Z,27.57
2022-08-01T05:41:51.229Z,27.60
2022-08-01T05:44:17.918Z,27.59
2022-08-01T05:46:44.511Z,27.62
2022-08-01T05:49:11.159Z,27.61
2022-08-01T05:51:37.731Z,27.61
2022-08-01T05:54:04.435Z,27.67
2022-08-01T05:56:32.411Z,27.67
2022-08-01T05:58:59.179Z,27.70
2022-08-01T06:01:25.851Z,27.74
2022-08-01T06:03:53.731Z,27.77
2022-08-01T06:06:20.333Z,27.73
2022-08-01T06:08:52.900Z,27.74
2022-08-01T06:11:19.648Z,27.74
2022-08-01T06:13:48.603Z,27.72
2022-08-01T06:16:20.347Z,27.70
2022-08-01T06:18:47.345Z,27.73
2022-08-01T06:21:13.936Z,27.78
2022-08-01T06:23:44.424Z,27.72
2022-08-01T06:26:11.222Z,27.74
2022-08-01T06:28:38.400Z,27.74
2022-08-01T06:31:05.212Z,27.76
2022-08-01T06:33:31.799Z,27.75
2022-08-01T06:35:58.349Z,27.73
2022-08-01T06:38:25.484Z,27.75
2022-08-01T06:40:52.068Z,27.73
2022-08-01T06:43:19.768Z,27.71
2022-08-01T06:45:46.383Z,27.72
2022-08-01T06:48:12.986Z,27.75
2022-08-01T06:50:39.557Z,27.73
2022-08-01T06:53:06.154Z,27.72
2022-08-01T06:55:32.839Z,27.73
2022-08-01T06:57:59.492Z,27.71
2022-08-01T07:00:26.528Z,27.72
2022-08-01T07:02:54.234Z,27.74
2022-08-01T07:05:21.063Z,27.77
2022-08-01T07:07:47.640Z,27.74
2022-08-01T07:10:14.396Z,27.76
2022-08-01T07:12:42.022Z,27.79
2022-08-01T07:15:12.077Z,27.78
2022-08-01T07:17:39.896Z,27.80
2022-08-01T07:20:08.499Z,27.84
2022-08-01T07:22:37.566Z,27.82
2022-08-01T07:25:05.599Z,27.82
2022-08-01T07:27:32.246Z,27.75
2022-08-01T07:29:58.869Z,27.70
2022-08-01T07:32:25.500Z,27.75
2022-08-01T07:34:52.128Z,27.85
2022-08-01T07:37:18.788Z,27.92
2022-08-01T07:40:06.373Z,28.01
2022-08-01T07:42:33.152Z,28.10
2022-08-01T07:44:59.786Z,28.17
2022-08-01T07:47:26.514Z,28.24
2022-08-01T07:49:53.516Z,28.25
2022-08-01T07:52:20.293Z,28.27
2022-08-01T07:54:50.487Z,28.30
2022-08-01T07:57:18.684Z,28.35
2022-08-01T07:59:45.285Z,28.36
2022-08-01T08:02:12.150Z,28.35
2022-08-01T08:04:38.913Z,28.40
2022-08-01T08:07:05.834Z,28.46
2022-08-01T08:09:38.000Z,28.32
2022-08-01T08:12:05.533Z,28.12
2022-08-01T08:14:33.022Z,27.82
2022-08-01T08:16:59.951Z,27.51
2022-08-01T08:19:38.534Z,27.18
2022-08-01T08:22:06.641Z,26.94
2022-08-01T08:24:33.435Z,26.72
2022-08-01T08:27:00.571Z,26.53
2022-08-01T08:29:28.028Z,26.35
2022-08-01T08:31:55.667Z,26.26
2022-08-01T08:34:23.725Z,26.17
2022-08-01T08:36:50.383Z,26.08
2022-08-01T08:39:19.572Z,25.98
2022-08-01T08:41:49.426Z,25.95
2022-08-01T08:44:17.404Z,25.92
2022-08-01T08:46:45.670Z,25.87
2022-08-01T08:49:13.654Z,25.86
2022-08-01T08:51:40.661Z,25.85
2022-08-01T08:54:07.431Z,25.83
2022-08-01T08:56:35.312Z,25.83
2022-08-01T08:59:02.499Z,25.79
2022-08-01T09:01:29.136Z,25.78
2022-08-01T09:03:55.703Z,25.73
2022-08-01T09:06:22.288Z,25.70
2022-08-01T09:08:48.902Z,25.68
2022-08-01T09:11:18.929Z,25.66
2022-08-01T09:14:09.377Z,25.66
2022-08-01T09:16:37.728Z,25.65
2022-08-01T09:19:16.371Z,25.63
2022-08-01T09:22:05.529Z,25.62
2022-08-01T09:24:32.598Z,25.60
2022-08-01T09:26:59.552Z,25.53
2022-08-01T09:29:38.189Z,25.49
2022-08-01T09:32:08.379Z,25.47
2022-08-01T09:34:40.850Z,25.48
2022-08-01T09:37:08.073Z,25.52
2022-08-01T09:39:38.630Z,25.82
2022-08-01T09:42:28.831Z,26.12
2022-08-01T09:44:56.509Z,26.39
2022-08-01T09:47:23.747Z,26.60
2022-08-01T09:49:57.356Z,26.78
2022-08-01T09:52:28.788Z,26.92
2022-08-01T09:55:03.396Z,27.05
2022-08-01T09:57:30.163Z,27.21
2022-08-01T10:00:00.836Z,27.35
2022-08-01T10:02:37.904Z,27.45
2022-08-01T10:05:08.439Z,27.56
2022-08-01T10:07:43.443Z,27.60
2022-08-01T10:10:15.023Z,27.67
2022-08-01T10:12:45.448Z,27.70
2022-08-01T10:15:14.506Z,27.72
2022-08-01T10:17:50.825Z,27.79
2022-08-01T10:20:29.950Z,27.91
2022-08-01T10:23:05.824Z,28.03
2022-08-01T10:25:41.965Z,28.07
2022-08-01T10:28:18.099Z,28.05
2022-08-01T10:30:48.630Z,28.05
2022-08-01T10:33:49.745Z,28.02
2022-08-01T10:36:02.811Z,28.03
2022-08-01T10:38:29.497Z,28.08
2022-08-01T10:40:58.052Z,28.13
2022-08-01T10:43:24.716Z,28.12
2022-08-01T10:45:51.483Z,28.13
2022-08-01T10:48:41.216Z,28.08
2022-08-01T10:51:17.760Z,28.10
2022-08-01T10:53:49.206Z,28.11
2022-08-01T10:56:18.136Z,28.17
2022-08-01T10:58:45.082Z,28.16
2022-08-01T11:01:16.804Z,28.19
2022-08-01T11:04:12.614Z,28.17
2022-08-01T11:06:54.821Z,28.16
2022-08-01T11:09:51.086Z,28.16
2022-08-01T11:12:24.422Z,28.24
2022-08-01T11:15:02.912Z,28.28
2022-08-01T11:17:37.481Z,28.34
2022-08-01T11:20:09.514Z,28.41
2022-08-01T11:23:02.198Z,28.45
2022-08-01T11:26:03.173Z,28.50
2022-08-01T11:28:34.675Z,28.56
2022-08-01T11:31:10.789Z,28.74
2022-08-01T11:33:46.257Z,28.79
2022-08-01T11:36:14.909Z,28.81
2022-08-01T11:38:45.588Z,28.79
2022-08-01T11:41:15.587Z,28.79
2022-08-01T11:44:10.118Z,28.72
2022-08-01T11:46:51.078Z,28.71
2022-08-01T11:49:23.895Z,28.72
2022-08-01T11:51:58.863Z,28.79
2022-08-01T11:54:35.292Z,28.77
2022-08-01T11:57:07.970Z,28.81
2022-08-01T11:59:41.187Z,28.80
2022-08-01T12:02:31.056Z,28.77
2022-08-01T12:05:01.597Z,28.76
2022-08-01T12:07:30.723Z,28.68
2022-08-01T12:10:01.711Z,28.68
2022-08-01T12:12:28.922Z,28.66
2022-08-01T12:14:57.076Z,28.58
2022-08-01T12:17:58.951Z,28.54
2022-08-01T12:20:32.018Z,28.56
2022-08-01T12:23:09.360Z,28.55
2022-08-01T12:25:36.577Z,28.55
2022-08-01T12:28:04.870Z,28.57
2022-08-01T12:30:31.953Z,28.55
2022-08-01T12:32:58.771Z,28.57
2022-08-01T12:35:26.537Z,28.52
2022-08-01T12:37:54.859Z,28.54
2022-08-01T12:40:26.169Z,28.54
2022-08-01T12:42:54.157Z,28.53
2022-08-01T12:45:28.769Z,28.55
2022-08-01T12:47:55.930Z,28.52
2022-08-01T12:50:23.498Z,28.54
2022-08-01T12:52:50.441Z,28.55
2022-08-01T12:55:21.741Z,28.55
2022-08-01T12:57:53.859Z,28.60
2022-08-01T13:00:25.057Z,28.58
2022-08-01T13:03:06.177Z,28.55
2022-08-01T13:05:52.371Z,28.55
2022-08-01T13:08:31.812Z,28.54
2022-08-01T13:11:06.312Z,28.50
2022-08-01T13:13:48.294Z,28.46
2022-08-01T13:16:25.970Z,28.42
2022-08-01T13:19:03.031Z,28.41
2022-08-01T13:21:34.436Z,28.39
2022-08-01T13:24:17.222Z,28.32
2022-08-01T13:26:57.169Z,28.29
2022-08-01T13:29:50.756Z,28.26
2022-08-01T13:32:27.838Z,28.26
2022-08-01T13:35:06.782Z,28.28
2022-08-01T13:37:33.379Z,28.29
2022-08-01T13:39:59.983Z,28.35
2022-08-01T13:42:26.565Z,28.40
2022-08-01T13:44:53.163Z,28.42
2022-08-01T13:47:19.725Z,28.44
2022-08-01T13:50:01.741Z,28.47
2022-08-01T13:52:28.562Z,28.49
2022-08-01T13:54:55.174Z,28.49
2022-08-01T13:57:22.742Z,28.53
2022-08-01T13:59:49.422Z,28.53
2022-08-01T14:02:16.005Z,28.51
2022-08-01T14:04:43.139Z,28.53
2022-08-01T14:07:14.372Z,28.55
2022-08-01T14:10:04.267Z,28.54
2022-08-01T14:12:28.558Z,28.55
2022-08-01T14:14:55.159Z,28.55
2022-08-01T14:17:21.727Z,28.57
2022-08-01T14:19:48.598Z,28.56
2022-08-01T14:22:15.199Z,28.55
2022-08-01T14:24:41.778Z,28.55
2022-08-01T14:27:08.384Z,28.56
2022-08-01T14:30:03.002Z,28.55
2022-08-01T14:32:25.928Z,28.56
2022-08-01T14:34:56.645Z,28.56
2022-08-01T14:37:23.441Z,28.56
2022-08-01T14:39:55.659Z,28.56
2022-08-01T14:42:22.231Z,28.59
2022-08-01T14:44:50.100Z,28.58
2022-08-01T14:47:21.732Z,28.61
2022-08-01T14:49:49.478Z,28.60
2022-08-01T14:52:16.117Z,28.61
2022-08-01T14:54:42.730Z,28.62
2022-08-01T14:57:09.499Z,28.63
2022-08-01T14:59:36.892Z,28.65
2022-08-01T15:02:03.607Z,28.64
2022-08-01T15:04:31.529Z,28.64
2022-08-01T15:06:58.231Z,28.65
2022-08-01T15:09:25.083Z,28.65
2022-08-01T15:11:51.750Z,28.65
2022-08-01T15:14:36.943Z,28.67
2022-08-01T15:17:03.734Z,28.66
2022-08-01T15:19:30.312Z,28.68
2022-08-01T15:21:56.949Z,28.66
2022-08-01T15:24:23.550Z,28.67
2022-08-01T15:26:50.114Z,28.67
2022-08-01T15:29:18.147Z,28.67
2022-08-01T15:31:44.771Z,28.69
2022-08-01T15:34:11.860Z,28.68
2022-08-01T15:36:41.875Z,28.68
2022-08-01T15:39:09.710Z,28.68
2022-08-01T15:41:36.335Z,28.68
2022-08-01T15:44:03.074Z,28.67
2022-08-01T15:46:29.684Z,28.68
2022-08-01T15:48:56.345Z,28.66
2022-08-01T15:51:23.409Z,28.66
2022-08-01T15:53:49.982Z,28.67
2022-08-01T15:56:16.561Z,28.68
2022-08-01T15:58:43.114Z,28.69
2022-08-01T16:01:09.840Z,28.67
2022-08-01T16:03:36.406Z,28.68
2022-08-01T16:06:02.975Z,28.69
2022-08-01T16:08:29.656Z,28.69
2022-08-01T16:10:56.253Z,28.68
2022-08-01T16:13:22.880Z,28.69
2022-08-01T16:15:49.496Z,28.68
2022-08-01T16:18:16.194Z,28.67
2022-08-01T16:20:45.912Z,28.66
2022-08-01T16:23:13.808Z,28.67
2022-08-01T16:25:40.378Z,28.69
2022-08-01T16:28:06.977Z,28.68
2022-08-01T16:30:33.569Z,28.68
2022-08-01T16:33:02.039Z,28.68
2022-08-01T16:35:36.331Z,28.68
2022-08-01T16:38:04.359Z,28.68
2022-08-01T16:40:30.963Z,28.67
2022-08-01T16:42:59.022Z,28.67
2022-08-01T16:45:25.811Z,28.66
2022-08-01T16:47:52.417Z,28.65
2022-08-01T16:50:19.026Z,28.66
2022-08-01T16:52:54.636Z,28.66
2022-08-01T16:55:23.146Z,28.65
2022-08-01T16:57:51.245Z,28.66
2022-08-01T17:00:21.200Z,28.66
2022-08-01T17:02:48.311Z,28.65
2022-08-01T17:05:15.024Z,28.66
2022-08-01T17:07:42.021Z,28.65
2022-08-01T17:10:09.192Z,28.65
2022-08-01T17:12:35.871Z,28.65
2022-08-01T17:15:02.615Z,28.63
2022-08-01T17:17:29.177Z,28.64
2022-08-01T17:19:55.773Z,28.64
2022-08-01T17:22:22.425Z,28.64
2022-08-01T17:24:51.047Z,28.64
2022-08-01T17:27:18.158Z,28.63
2022-08-01T17:29:44.914Z,28.63
2022-08-01T17:32:12.652Z,28.64
2022-08-01T17:34:40.026Z,28.63
2022-08-01T17:37:06.975Z,28.64
2022-08-01T17:39:38.966Z,28.63
2022-08-01T17:42:07.307Z,28.63
2022-08-01T17:44:33.865Z,28.63
2022-08-01T17:47:00.483Z,28.62
2022-08-01T17:49:52.174Z,28.62
2022-08-01T17:52:13.622Z,28.63
2022-08-01T17:54:40.291Z,28.63
2022-08-01T17:57:08.039Z,28.63
2022-08-01T17:59:34.924Z,28.62
2022-08-01T18:02:01.593Z,28.61
2022-08-01T18:04:31.216Z,28.62
2022-08-01T18:07:00.749Z,28.61
2022-08-01T18:09:32.456Z,28.61
2022-08-01T18:11:59.879Z,28.61
2022-08-01T18:14:40.849Z,28.61
2022-08-01T18:17:11.080Z,28.60
2022-08-01T18:19:38.745Z,28.61
2022-08-01T18:22:05.479Z,28.60
2022-08-01T18:24:41.008Z,28.60
2022-08-01T18:27:07.883Z,28.60
2022-08-01T18:29:47.332Z,28.60
2022-08-01T18:32:15.176Z,28.58
2022-08-01T18:34:41.745Z,28.60
2022-08-01T18:37:08.762Z,28.59
2022-08-01T18:39:35.940Z,28.58
2022-08-01T18:42:02.632Z,28.59
2022-08-01T18:44:30.083Z,28.58
2022-08-01T18:46:56.719Z,28.58
2022-08-01T18:49:23.391Z,28.58
2022-08-01T18:51:50.027Z,28.57
2022-08-01T18:54:16.711Z,28.57
2022-08-01T18:56:43.779Z,28.55
2022-08-01T18:59:10.538Z,28.56
2022-08-01T19:01:37.244Z,28.56
2022-08-01T19:04:03.958Z,28.56
2022-08-01T19:06:30.536Z,28.55
2022-08-01T19:09:02.008Z,28.55
2022-08-01T19:11:29.351Z,28.55
2022-08-01T19:13:55.914Z,28.55
2022-08-01T19:16:22.645Z,28.54
2022-08-01T19:18:49.211Z,28.53
2022-08-01T19:21:15.863Z,28.54
2022-08-01T19:24:01.040Z,28.53
2022-08-01T19:26:27.936Z,28.54
2022-08-01T19:28:58.377Z,28.53
2022-08-01T19:31:27.640Z,28.51
2022-08-01T19:33:55.276Z,28.51
2022-08-01T19:36:21.869Z,28.51
2022-08-01T19:38:48.520Z,28.50
2022-08-01T19:41:15.982Z,28.50
2022-08-01T19:43:46.426Z,28.51
2022-08-01T19:46:17.742Z,28.50
2022-08-01T19:48:46.545Z,28.50
2022-08-01T19:51:16.971Z,28.50
2022-08-01T19:53:45.233Z,28.51
2022-08-01T19:56:11.815Z,28.49
2022-08-01T19:58:39.936Z,28.49
2022-08-01T20:01:10.664Z,28.49
2022-08-01T20:03:37.552Z,28.49
2022-08-01T20:06:04.829Z,28.49
2022-08-01T20:08:32.290Z,28.48
2022-08-01T20:11:01.985Z,28.49
2022-08-01T20:13:39.207Z,28.48
2022-08-01T20:16:06.216Z,28.48
2022-08-01T20:18:32.787Z,28.48
2022-08-01T20:20:59.394Z,28.47
2022-08-01T20:23:27.285Z,28.48
2022-08-01T20:25:58.299Z,28.48
2022-08-01T20:28:28.410Z,28.47
2022-08-01T20:31:05.521Z,28.47
2022-08-01T20:33:32.695Z,28.47
2022-08-01T20:36:00.802Z,28.47
2022-08-01T20:38:28.945Z,28.47
2022-08-01T20:40:58.753Z,28.47
2022-08-01T20:43:28.379Z,28.47
2022-08-01T20:45:55.101Z,28.47
2022-08-01T20:48:21.748Z,28.47
2022-08-01T20:51:07.978Z,28.46
2022-08-01T20:53:42.388Z,28.45
2022-08-01T20:56:36.544Z,28.47
2022-08-01T20:59:39.955Z,28.47
2022-08-01T21:02:24.983Z,28.46
2022-08-01T21:05:06.940Z,28.44
2022-08-01T21:07:51.889Z,28.45
2022-08-01T21:10:21.845Z,28.45
2022-08-01T21:12:51.699Z,28.44
2022-08-01T21:15:29.246Z,28.44
2022-08-01T21:17:57.356Z,28.44
2022-08-01T21:20:27.798Z,28.43
2022-08-01T21:23:20.366Z,28.42
2022-08-01T21:25:46.942Z,28.42
2022-08-01T21:28:15.326Z,28.42
2022-08-01T21:30:42.155Z,28.42
2022-08-01T21:33:20.776Z,28.41
2022-08-01T21:35:47.404Z,28.42
2022-08-01T21:38:15.678Z,28.42
2022-08-01T21:40:42.263Z,28.41
2022-08-01T21:43:08.879Z,28.41
2022-08-01T21:45:35.486Z,28.41
2022-08-01T21:48:02.275Z,28.40
2022-08-01T21:50:29.014Z,28.40
2022-08-01T21:53:11.663Z,28.39
2022-08-01T21:55:57.532Z,28.40
2022-08-01T21:58:52.058Z,28.40
2022-08-01T22:01:30.558Z,28.39
2022-08-01T22:03:59.201Z,28.39
2022-08-01T22:06:25.782Z,28.39
2022-08-01T22:08:54.022Z,28.38
2022-08-01T22:11:27.339Z,28.37
2022-08-01T22:13:57.688Z,28.37
2022-08-01T22:16:25.551Z,28.37
2022-08-01T22:18:52.551Z,28.36
2022-08-01T22:21:19.257Z,28.37
2022-08-01T22:23:45.868Z,28.36
2022-08-01T22:26:12.448Z,28.36
2022-08-01T22:28:39.740Z,28.36
2022-08-01T22:31:09.545Z,28.35
2022-08-01T22:33:36.664Z,28.35
2022-08-01T22:36:04.239Z,28.34
2022-08-01T22:38:30.820Z,28.35
2022-08-01T22:41:00.094Z,28.34
2022-08-01T22:43:38.731Z,28.34
2022-08-01T22:46:35.423Z,28.36
2022-08-01T22:49:10.931Z,28.36
2022-08-01T22:51:54.855Z,28.35
2022-08-01T22:54:27.078Z,28.34
2022-08-01T22:56:55.264Z,28.35
2022-08-01T22:59:27.166Z,28.32
2022-08-01T23:02:10.136Z,28.33
2022-08-01T23:04:42.086Z,28.32
2022-08-01T23:07:08.661Z,28.32
2022-08-01T23:09:39.170Z,28.31
2022-08-01T23:12:20.154Z,28.32
2022-08-01T23:14:46.764Z,28.32
2022-08-01T23:17:27.194Z,28.32
2022-08-01T23:20:02.172Z,28.30
2022-08-01T23:22:31.245Z,28.30
2022-08-01T23:25:04.110Z,28.31
2022-08-01T23:28:03.999Z,28.30
2022-08-01T23:30:20.316Z,28.30
2022-08-01T23:32:46.931Z,28.30
2022-08-01T23:35:13.490Z,28.30
2022-08-01T23:37:40.061Z,28.29
2022-08-01T23:40:07.222Z,28.29
2022-08-01T23:42:33.817Z,28.30
2022-08-01T23:45:00.371Z,28.28
2022-08-01T23:47:26.985Z,28.28
2022-08-01T23:49:53.864Z,28.27
2022-08-01T23:52:21.574Z,28.28
2022-08-01T23:54:48.399Z,28.27
2022-08-01T23:57:16.464Z,28.26
2022-08-01T23:59:52.954Z,28.27
